sensor_id;sensor_type;location;lat;lon;timestamp;P1;durP1;ratioP1;P2;durP2;ratioP2
38455;SDS011;24237;50.106;20.014;2023-04-03T00:01:06;7.18;;;4.03;;
38455;SDS011;24237;50.106;20.014;2023-04-03T00:03:32;6.05;;;4.32;;
38455;SDS011;24237;50.106;20.014;2023-04-03T00:05:58;5.50;;;3.88;;
38455;SDS011;24237;50.106;20.014;2023-04-03T00:08:24;4.97;;;3.63;;
38455;SDS011;24237;50.106;20.014;2023-04-03T00:10:49;5.70;;;3.60;;
38455;SDS011;24237;50.106;20.014;2023-04-03T00:13:15;5.90;;;4.25;;
38455;SDS011;24237;50.106;20.014;2023-04-03T00:15:41;8.50;;;4.68;;
38455;SDS011;24237;50.106;20.014;2023-04-03T00:18:07;7.80;;;4.28;;
38455;SDS011;24237;50.106;20.014;2023-04-03T00:20:33;9.57;;;4.97;;
38455;SDS011;24237;50.106;20.014;2023-04-03T00:23:00;6.68;;;5.05;;
38455;SDS011;24237;50.106;20.014;2023-04-03T00:25:26;7.55;;;5.47;;
38455;SDS011;24237;50.106;20.014;2023-04-03T00:27:52;7.10;;;5.32;;
38455;SDS011;24237;50.106;20.014;2023-04-03T00:30:18;6.65;;;5.13;;
38455;SDS011;24237;50.106;20.014;2023-04-03T00:32:47;9.95;;;5.57;;
38455;SDS011;24237;50.106;20.014;2023-04-03T00:35:13;9.10;;;4.93;;
38455;SDS011;24237;50.106;20.014;2023-04-03T00:37:40;8.57;;;5.32;;
38455;SDS011;24237;50.106;20.014;2023-04-03T00:40:07;8.20;;;5.35;;
38455;SDS011;24237;50.106;20.014;2023-04-03T00:42:34;7.38;;;4.72;;
38455;SDS011;24237;50.106;20.014;2023-04-03T00:47:27;6.75;;;3.53;;
38455;SDS011;24237;50.106;20.014;2023-04-03T00:49:54;8.20;;;5.38;;
38455;SDS011;24237;50.106;20.014;2023-04-03T00:52:21;7.88;;;5.00;;
38455;SDS011;24237;50.106;20.014;2023-04-03T00:54:51;7.57;;;4.40;;
38455;SDS011;24237;50.106;20.014;2023-04-03T00:57:19;11.32;;;5.22;;
38455;SDS011;24237;50.106;20.014;2023-04-03T00:59:49;7.45;;;4.68;;
38455;SDS011;24237;50.106;20.014;2023-04-03T01:02:18;6.45;;;3.92;;
38455;SDS011;24237;50.106;20.014;2023-04-03T01:04:44;7.40;;;5.03;;
38455;SDS011;24237;50.106;20.014;2023-04-03T01:07:11;8.07;;;3.40;;
38455;SDS011;24237;50.106;20.014;2023-04-03T01:09:40;8.15;;;5.13;;
38455;SDS011;24237;50.106;20.014;2023-04-03T01:14:46;6.45;;;4.53;;
38455;SDS011;24237;50.106;20.014;2023-04-03T01:22:52;10.73;;;4.45;;
38455;SDS011;24237;50.106;20.014;2023-04-03T01:25:47;7.68;;;4.20;;
38455;SDS011;24237;50.106;20.014;2023-04-03T01:28:18;5.70;;;3.70;;
38455;SDS011;24237;50.106;20.014;2023-04-03T01:33:19;5.93;;;4.25;;
38455;SDS011;24237;50.106;20.014;2023-04-03T01:35:45;7.15;;;3.50;;
38455;SDS011;24237;50.106;20.014;2023-04-03T01:38:10;7.18;;;4.00;;
38455;SDS011;24237;50.106;20.014;2023-04-03T01:40:36;6.70;;;4.28;;
38455;SDS011;24237;50.106;20.014;2023-04-03T01:43:02;10.52;;;4.88;;
38455;SDS011;24237;50.106;20.014;2023-04-03T01:45:27;5.07;;;3.80;;
38455;SDS011;24237;50.106;20.014;2023-04-03T01:47:53;6.78;;;4.13;;
38455;SDS011;24237;50.106;20.014;2023-04-03T01:50:19;7.40;;;4.50;;
38455;SDS011;24237;50.106;20.014;2023-04-03T01:52:45;6.65;;;4.10;;
38455;SDS011;24237;50.106;20.014;2023-04-03T01:55:10;8.70;;;5.13;;
38455;SDS011;24237;50.106;20.014;2023-04-03T01:57:36;7.05;;;4.65;;
38455;SDS011;24237;50.106;20.014;2023-04-03T02:00:02;6.88;;;5.07;;
38455;SDS011;24237;50.106;20.014;2023-04-03T02:02:28;7.30;;;4.82;;
38455;SDS011;24237;50.106;20.014;2023-04-03T02:04:53;8.27;;;4.40;;
38455;SDS011;24237;50.106;20.014;2023-04-03T02:07:19;7.40;;;4.30;;
38455;SDS011;24237;50.106;20.014;2023-04-03T02:09:45;8.02;;;4.97;;
38455;SDS011;24237;50.106;20.014;2023-04-03T02:12:10;5.68;;;3.92;;
38455;SDS011;24237;50.106;20.014;2023-04-03T02:14:36;8.65;;;4.03;;
38455;SDS011;24237;50.106;20.014;2023-04-03T02:17:02;6.60;;;4.13;;
38455;SDS011;24237;50.106;20.014;2023-04-03T02:19:33;5.57;;;3.60;;
38455;SDS011;24237;50.106;20.014;2023-04-03T02:21:59;7.50;;;4.20;;
38455;SDS011;24237;50.106;20.014;2023-04-03T02:24:25;6.32;;;4.28;;
38455;SDS011;24237;50.106;20.014;2023-04-03T02:26:50;6.10;;;4.65;;
38455;SDS011;24237;50.106;20.014;2023-04-03T02:29:16;5.00;;;3.40;;
38455;SDS011;24237;50.106;20.014;2023-04-03T02:31:41;7.80;;;3.75;;
38455;SDS011;24237;50.106;20.014;2023-04-03T02:34:07;5.75;;;2.97;;
38455;SDS011;24237;50.106;20.014;2023-04-03T02:36:32;6.57;;;3.75;;
38455;SDS011;24237;50.106;20.014;2023-04-03T02:38:58;4.68;;;3.15;;
38455;SDS011;24237;50.106;20.014;2023-04-03T02:41:24;7.18;;;3.25;;
38455;SDS011;24237;50.106;20.014;2023-04-03T02:43:52;8.15;;;3.47;;
38455;SDS011;24237;50.106;20.014;2023-04-03T02:46:18;5.43;;;3.38;;
38455;SDS011;24237;50.106;20.014;2023-04-03T02:48:43;6.57;;;4.00;;
38455;SDS011;24237;50.106;20.014;2023-04-03T02:51:09;5.22;;;2.85;;
38455;SDS011;24237;50.106;20.014;2023-04-03T02:53:35;5.53;;;3.63;;
38455;SDS011;24237;50.106;20.014;2023-04-03T02:56:00;5.13;;;3.00;;
38455;SDS011;24237;50.106;20.014;2023-04-03T02:58:26;3.92;;;2.47;;
38455;SDS011;24237;50.106;20.014;2023-04-03T03:00:51;5.63;;;3.30;;
38455;SDS011;24237;50.106;20.014;2023-04-03T03:03:18;4.20;;;2.63;;
38455;SDS011;24237;50.106;20.014;2023-04-03T03:05:43;6.00;;;2.95;;
38455;SDS011;24237;50.106;20.014;2023-04-03T03:08:09;6.15;;;2.78;;
38455;SDS011;24237;50.106;20.014;2023-04-03T03:10:35;5.25;;;2.83;;
38455;SDS011;24237;50.106;20.014;2023-04-03T03:13:00;5.05;;;2.90;;
38455;SDS011;24237;50.106;20.014;2023-04-03T03:15:26;3.05;;;2.40;;
38455;SDS011;24237;50.106;20.014;2023-04-03T03:17:51;4.40;;;2.67;;
38455;SDS011;24237;50.106;20.014;2023-04-03T03:20:17;3.88;;;2.50;;
38455;SDS011;24237;50.106;20.014;2023-04-03T03:22:42;4.82;;;2.63;;
38455;SDS011;24237;50.106;20.014;2023-04-03T03:25:08;5.43;;;2.72;;
38455;SDS011;24237;50.106;20.014;2023-04-03T03:27:34;4.05;;;2.65;;
38455;SDS011;24237;50.106;20.014;2023-04-03T03:29:59;7.75;;;3.50;;
38455;SDS011;24237;50.106;20.014;2023-04-03T03:32:25;3.25;;;2.13;;
38455;SDS011;24237;50.106;20.014;2023-04-03T03:34:50;5.75;;;3.10;;
38455;SDS011;24237;50.106;20.014;2023-04-03T03:37:16;6.05;;;3.20;;
38455;SDS011;24237;50.106;20.014;2023-04-03T03:39:42;7.28;;;3.17;;
38455;SDS011;24237;50.106;20.014;2023-04-03T03:42:07;4.53;;;2.88;;
38455;SDS011;24237;50.106;20.014;2023-04-03T03:44:33;6.78;;;2.60;;
38455;SDS011;24237;50.106;20.014;2023-04-03T03:46:58;4.07;;;2.88;;
38455;SDS011;24237;50.106;20.014;2023-04-03T03:49:24;6.68;;;3.67;;
38455;SDS011;24237;50.106;20.014;2023-04-03T03:51:50;5.10;;;2.80;;
38455;SDS011;24237;50.106;20.014;2023-04-03T03:54:16;4.78;;;3.20;;
38455;SDS011;24237;50.106;20.014;2023-04-03T03:56:42;5.47;;;3.13;;
38455;SDS011;24237;50.106;20.014;2023-04-03T03:59:07;5.20;;;3.10;;
38455;SDS011;24237;50.106;20.014;2023-04-03T04:01:33;5.70;;;3.10;;
38455;SDS011;24237;50.106;20.014;2023-04-03T04:03:58;4.25;;;3.00;;
38455;SDS011;24237;50.106;20.014;2023-04-03T04:06:24;5.65;;;3.08;;
38455;SDS011;24237;50.106;20.014;2023-04-03T04:08:50;5.93;;;2.28;;
38455;SDS011;24237;50.106;20.014;2023-04-03T04:11:16;4.28;;;2.70;;
38455;SDS011;24237;50.106;20.014;2023-04-03T04:13:42;5.18;;;2.65;;
38455;SDS011;24237;50.106;20.014;2023-04-03T04:16:07;3.33;;;2.65;;
38455;SDS011;24237;50.106;20.014;2023-04-03T04:18:34;4.05;;;2.70;;
38455;SDS011;24237;50.106;20.014;2023-04-03T04:21:00;4.85;;;2.63;;
38455;SDS011;24237;50.106;20.014;2023-04-03T04:23:25;5.47;;;2.80;;
38455;SDS011;24237;50.106;20.014;2023-04-03T04:25:51;5.43;;;3.38;;
38455;SDS011;24237;50.106;20.014;2023-04-03T04:28:17;4.88;;;2.95;;
38455;SDS011;24237;50.106;20.014;2023-04-03T04:30:42;7.32;;;3.00;;
38455;SDS011;24237;50.106;20.014;2023-04-03T04:33:08;11.93;;;3.45;;
38455;SDS011;24237;50.106;20.014;2023-04-03T04:35:34;7.63;;;3.05;;
38455;SDS011;24237;50.106;20.014;2023-04-03T04:38:00;5.45;;;2.90;;
38455;SDS011;24237;50.106;20.014;2023-04-03T04:40:26;4.53;;;3.17;;
38455;SDS011;24237;50.106;20.014;2023-04-03T04:42:52;7.47;;;3.75;;
38455;SDS011;24237;50.106;20.014;2023-04-03T04:45:18;5.97;;;3.20;;
38455;SDS011;24237;50.106;20.014;2023-04-03T04:47:43;4.78;;;3.10;;
38455;SDS011;24237;50.106;20.014;2023-04-03T04:50:09;4.43;;;2.53;;
38455;SDS011;24237;50.106;20.014;2023-04-03T04:52:36;9.45;;;3.63;;
38455;SDS011;24237;50.106;20.014;2023-04-03T04:55:01;7.72;;;3.30;;
38455;SDS011;24237;50.106;20.014;2023-04-03T04:57:27;5.82;;;3.38;;
38455;SDS011;24237;50.106;20.014;2023-04-03T04:59:52;7.78;;;3.38;;
38455;SDS011;24237;50.106;20.014;2023-04-03T05:02:18;6.20;;;3.33;;
38455;SDS011;24237;50.106;20.014;2023-04-03T05:04:43;6.53;;;3.05;;
38455;SDS011;24237;50.106;20.014;2023-04-03T05:07:09;6.78;;;3.50;;
38455;SDS011;24237;50.106;20.014;2023-04-03T05:09:35;7.53;;;3.50;;
38455;SDS011;24237;50.106;20.014;2023-04-03T05:12:00;6.53;;;3.88;;
38455;SDS011;24237;50.106;20.014;2023-04-03T05:14:27;6.07;;;3.28;;
38455;SDS011;24237;50.106;20.014;2023-04-03T05:16:53;5.68;;;2.95;;
38455;SDS011;24237;50.106;20.014;2023-04-03T05:19:19;4.63;;;3.20;;
38455;SDS011;24237;50.106;20.014;2023-04-03T05:21:46;7.10;;;3.58;;
38455;SDS011;24237;50.106;20.014;2023-04-03T05:24:12;7.25;;;3.08;;
38455;SDS011;24237;50.106;20.014;2023-04-03T05:26:38;9.80;;;4.05;;
38455;SDS011;24237;50.106;20.014;2023-04-03T05:29:03;5.28;;;3.00;;
38455;SDS011;24237;50.106;20.014;2023-04-03T05:31:29;7.38;;;3.42;;
38455;SDS011;24237;50.106;20.014;2023-04-03T05:33:55;19.98;;;8.32;;
38455;SDS011;24237;50.106;20.014;2023-04-03T05:36:21;9.23;;;3.95;;
38455;SDS011;24237;50.106;20.014;2023-04-03T05:38:47;5.82;;;3.20;;
38455;SDS011;24237;50.106;20.014;2023-04-03T05:41:13;5.90;;;3.22;;
38455;SDS011;24237;50.106;20.014;2023-04-03T05:43:39;7.00;;;2.92;;
38455;SDS011;24237;50.106;20.014;2023-04-03T05:46:11;6.93;;;4.03;;
38455;SDS011;24237;50.106;20.014;2023-04-03T05:48:41;8.60;;;4.22;;
38455;SDS011;24237;50.106;20.014;2023-04-03T05:51:07;6.53;;;3.30;;
38455;SDS011;24237;50.106;20.014;2023-04-03T05:53:56;8.88;;;4.07;;
38455;SDS011;24237;50.106;20.014;2023-04-03T05:56:44;7.13;;;3.22;;
38455;SDS011;24237;50.106;20.014;2023-04-03T05:59:10;6.75;;;3.58;;
38455;SDS011;24237;50.106;20.014;2023-04-03T06:01:36;12.75;;;3.45;;
38455;SDS011;24237;50.106;20.014;2023-04-03T06:04:02;4.63;;;3.25;;
38455;SDS011;24237;50.106;20.014;2023-04-03T06:06:42;7.57;;;3.65;;
38455;SDS011;24237;50.106;20.014;2023-04-03T06:09:16;5.72;;;3.17;;
38455;SDS011;24237;50.106;20.014;2023-04-03T06:14:09;5.47;;;2.67;;
38455;SDS011;24237;50.106;20.014;2023-04-03T06:16:35;4.90;;;2.08;;
38455;SDS011;24237;50.106;20.014;2023-04-03T06:19:02;11.63;;;4.07;;
38455;SDS011;24237;50.106;20.014;2023-04-03T06:21:27;8.20;;;3.20;;
38455;SDS011;24237;50.106;20.014;2023-04-03T06:23:53;9.75;;;4.47;;
38455;SDS011;24237;50.106;20.014;2023-04-03T06:26:19;17.50;;;3.67;;
38455;SDS011;24237;50.106;20.014;2023-04-03T06:28:45;9.53;;;4.37;;
38455;SDS011;24237;50.106;20.014;2023-04-03T06:31:11;6.07;;;2.78;;
38455;SDS011;24237;50.106;20.014;2023-04-03T06:33:36;6.95;;;2.85;;
38455;SDS011;24237;50.106;20.014;2023-04-03T06:36:05;4.22;;;2.10;;
38455;SDS011;24237;50.106;20.014;2023-04-03T06:38:34;13.15;;;3.17;;
38455;SDS011;24237;50.106;20.014;2023-04-03T06:41:00;5.95;;;2.03;;
38455;SDS011;24237;50.106;20.014;2023-04-03T06:43:26;7.85;;;2.38;;
38455;SDS011;24237;50.106;20.014;2023-04-03T06:45:51;7.22;;;2.90;;
38455;SDS011;24237;50.106;20.014;2023-04-03T06:48:17;9.85;;;2.78;;
38455;SDS011;24237;50.106;20.014;2023-04-03T06:50:43;6.78;;;2.70;;
38455;SDS011;24237;50.106;20.014;2023-04-03T06:53:09;9.93;;;2.75;;
38455;SDS011;24237;50.106;20.014;2023-04-03T06:55:35;11.02;;;2.85;;
38455;SDS011;24237;50.106;20.014;2023-04-03T06:58:01;5.15;;;2.38;;
38455;SDS011;24237;50.106;20.014;2023-04-03T07:00:28;4.43;;;2.35;;
38455;SDS011;24237;50.106;20.014;2023-04-03T07:02:54;9.00;;;3.03;;
38455;SDS011;24237;50.106;20.014;2023-04-03T07:05:21;9.52;;;2.95;;
38455;SDS011;24237;50.106;20.014;2023-04-03T07:07:47;7.10;;;2.53;;
38455;SDS011;24237;50.106;20.014;2023-04-03T07:10:12;9.65;;;2.30;;
38455;SDS011;24237;50.106;20.014;2023-04-03T07:12:38;6.13;;;2.15;;
38455;SDS011;24237;50.106;20.014;2023-04-03T07:15:04;5.18;;;2.10;;
38455;SDS011;24237;50.106;20.014;2023-04-03T07:17:30;6.35;;;2.63;;
38455;SDS011;24237;50.106;20.014;2023-04-03T07:19:57;7.20;;;2.85;;
38455;SDS011;24237;50.106;20.014;2023-04-03T07:22:22;4.28;;;2.40;;
38455;SDS011;24237;50.106;20.014;2023-04-03T07:24:48;5.93;;;2.03;;
38455;SDS011;24237;50.106;20.014;2023-04-03T07:27:13;8.30;;;2.13;;
38455;SDS011;24237;50.106;20.014;2023-04-03T07:29:39;4.70;;;2.03;;
38455;SDS011;24237;50.106;20.014;2023-04-03T07:32:05;4.68;;;2.20;;
38455;SDS011;24237;50.106;20.014;2023-04-03T07:34:31;4.25;;;2.25;;
38455;SDS011;24237;50.106;20.014;2023-04-03T07:36:57;12.55;;;2.33;;
38455;SDS011;24237;50.106;20.014;2023-04-03T07:39:23;9.00;;;2.55;;
38455;SDS011;24237;50.106;20.014;2023-04-03T07:41:50;5.55;;;2.05;;
38455;SDS011;24237;50.106;20.014;2023-04-03T07:44:16;6.53;;;1.98;;
38455;SDS011;24237;50.106;20.014;2023-04-03T07:46:42;6.22;;;2.60;;
38455;SDS011;24237;50.106;20.014;2023-04-03T07:49:08;5.15;;;2.30;;
38455;SDS011;24237;50.106;20.014;2023-04-03T07:51:34;7.18;;;2.63;;
38455;SDS011;24237;50.106;20.014;2023-04-03T07:54:00;7.88;;;2.58;;
38455;SDS011;24237;50.106;20.014;2023-04-03T07:56:26;9.23;;;2.35;;
38455;SDS011;24237;50.106;20.014;2023-04-03T07:58:52;9.77;;;2.60;;
38455;SDS011;24237;50.106;20.014;2023-04-03T08:01:18;4.53;;;1.98;;
38455;SDS011;24237;50.106;20.014;2023-04-03T08:03:44;6.22;;;2.78;;
38455;SDS011;24237;50.106;20.014;2023-04-03T08:06:09;3.28;;;1.27;;
38455;SDS011;24237;50.106;20.014;2023-04-03T08:08:35;7.20;;;2.38;;
38455;SDS011;24237;50.106;20.014;2023-04-03T08:11:01;2.17;;;1.50;;
38455;SDS011;24237;50.106;20.014;2023-04-03T08:13:28;8.85;;;3.00;;
38455;SDS011;24237;50.106;20.014;2023-04-03T08:15:54;8.02;;;3.20;;
38455;SDS011;24237;50.106;20.014;2023-04-03T08:20:49;3.75;;;1.88;;
38455;SDS011;24237;50.106;20.014;2023-04-03T08:23:16;8.52;;;2.70;;
38455;SDS011;24237;50.106;20.014;2023-04-03T08:25:42;8.68;;;2.85;;
38455;SDS011;24237;50.106;20.014;2023-04-03T08:28:09;5.88;;;2.45;;
38455;SDS011;24237;50.106;20.014;2023-04-03T08:33:04;5.20;;;2.25;;
38455;SDS011;24237;50.106;20.014;2023-04-03T08:35:29;7.38;;;3.15;;
38455;SDS011;24237;50.106;20.014;2023-04-03T08:37:55;6.68;;;2.38;;
38455;SDS011;24237;50.106;20.014;2023-04-03T08:40:21;5.93;;;2.33;;
38455;SDS011;24237;50.106;20.014;2023-04-03T08:48:11;4.43;;;2.17;;
38455;SDS011;24237;50.106;20.014;2023-04-03T08:50:47;3.85;;;2.05;;
38455;SDS011;24237;50.106;20.014;2023-04-03T08:53:26;4.05;;;2.60;;
38455;SDS011;24237;50.106;20.014;2023-04-03T08:55:57;8.45;;;2.40;;
38455;SDS011;24237;50.106;20.014;2023-04-03T08:58:26;5.63;;;2.28;;
38455;SDS011;24237;50.106;20.014;2023-04-03T09:03:55;8.13;;;2.85;;
38455;SDS011;24237;50.106;20.014;2023-04-03T09:06:22;5.60;;;2.00;;
38455;SDS011;24237;50.106;20.014;2023-04-03T09:14:26;5.30;;;2.08;;
38455;SDS011;24237;50.106;20.014;2023-04-03T09:17:14;10.30;;;3.88;;
38455;SDS011;24237;50.106;20.014;2023-04-03T09:19:49;6.32;;;2.67;;
38455;SDS011;24237;50.106;20.014;2023-04-03T09:22:24;9.82;;;3.00;;
38455;SDS011;24237;50.106;20.014;2023-04-03T09:27:45;6.00;;;3.03;;
38455;SDS011;24237;50.106;20.014;2023-04-03T09:30:16;3.08;;;1.98;;
38455;SDS011;24237;50.106;20.014;2023-04-03T09:32:44;7.40;;;3.20;;
38455;SDS011;24237;50.106;20.014;2023-04-03T09:35:29;7.50;;;2.80;;
38455;SDS011;24237;50.106;20.014;2023-04-03T09:38:00;8.25;;;2.65;;
38455;SDS011;24237;50.106;20.014;2023-04-03T09:40:41;6.15;;;2.13;;
38455;SDS011;24237;50.106;20.014;2023-04-03T09:43:29;5.30;;;2.47;;
38455;SDS011;24237;50.106;20.014;2023-04-03T09:45:55;6.65;;;2.72;;
38455;SDS011;24237;50.106;20.014;2023-04-03T09:48:49;6.57;;;2.42;;
38455;SDS011;24237;50.106;20.014;2023-04-03T09:51:26;4.60;;;2.03;;
38455;SDS011;24237;50.106;20.014;2023-04-03T09:53:53;6.25;;;2.70;;
38455;SDS011;24237;50.106;20.014;2023-04-03T09:56:27;9.30;;;3.20;;
38455;SDS011;24237;50.106;20.014;2023-04-03T10:01:31;8.75;;;2.10;;
38455;SDS011;24237;50.106;20.014;2023-04-03T10:04:13;6.82;;;3.35;;
38455;SDS011;24237;50.106;20.014;2023-04-03T10:06:41;6.90;;;2.33;;
38455;SDS011;24237;50.106;20.014;2023-04-03T10:14:24;4.72;;;2.47;;
38455;SDS011;24237;50.106;20.014;2023-04-03T10:19:45;7.63;;;2.78;;
38455;SDS011;24237;50.106;20.014;2023-04-03T10:22:21;8.82;;;2.28;;
38455;SDS011;24237;50.106;20.014;2023-04-03T10:27:42;5.88;;;2.53;;
38455;SDS011;24237;50.106;20.014;2023-04-03T10:30:18;6.28;;;2.60;;
38455;SDS011;24237;50.106;20.014;2023-04-03T10:35:39;4.82;;;2.20;;
38455;SDS011;24237;50.106;20.014;2023-04-03T10:49:25;5.72;;;2.90;;
38455;SDS011;24237;50.106;20.014;2023-04-03T10:54:40;6.72;;;2.80;;
38455;SDS011;24237;50.106;20.014;2023-04-03T10:57:14;8.13;;;3.57;;
38455;SDS011;24237;50.106;20.014;2023-04-03T10:59:47;5.82;;;2.10;;
38455;SDS011;24237;50.106;20.014;2023-04-03T11:02:36;8.88;;;2.28;;
38455;SDS011;24237;50.106;20.014;2023-04-03T11:05:13;10.23;;;2.80;;
38455;SDS011;24237;50.106;20.014;2023-04-03T11:07:45;7.97;;;3.08;;
38455;SDS011;24237;50.106;20.014;2023-04-03T11:15:38;6.53;;;2.60;;
38455;SDS011;24237;50.106;20.014;2023-04-03T11:18:09;8.65;;;2.72;;
38455;SDS011;24237;50.106;20.014;2023-04-03T11:20:41;7.90;;;2.40;;
38455;SDS011;24237;50.106;20.014;2023-04-03T11:23:15;8.43;;;2.67;;
38455;SDS011;24237;50.106;20.014;2023-04-03T11:25:50;7.88;;;3.00;;
38455;SDS011;24237;50.106;20.014;2023-04-03T11:28:19;5.88;;;2.75;;
38455;SDS011;24237;50.106;20.014;2023-04-03T11:36:28;6.82;;;2.30;;
38455;SDS011;24237;50.106;20.014;2023-04-03T11:38:58;5.05;;;2.85;;
38455;SDS011;24237;50.106;20.014;2023-04-03T11:41:32;4.68;;;2.00;;
38455;SDS011;24237;50.106;20.014;2023-04-03T11:44:00;4.57;;;2.47;;
38455;SDS011;24237;50.106;20.014;2023-04-03T12:05:49;5.43;;;2.13;;
38455;SDS011;24237;50.106;20.014;2023-04-03T12:08:21;6.28;;;1.90;;
38455;SDS011;24237;50.106;20.014;2023-04-03T12:13:34;7.70;;;2.40;;
38455;SDS011;24237;50.106;20.014;2023-04-03T12:16:00;4.70;;;2.00;;
38455;SDS011;24237;50.106;20.014;2023-04-03T12:18:41;5.00;;;2.30;;
38455;SDS011;24237;50.106;20.014;2023-04-03T12:21:19;4.85;;;2.05;;
38455;SDS011;24237;50.106;20.014;2023-04-03T12:27:01;6.45;;;1.85;;
38455;SDS011;24237;50.106;20.014;2023-04-03T12:32:15;4.80;;;2.45;;
38455;SDS011;24237;50.106;20.014;2023-04-03T12:43:59;5.38;;;2.38;;
38455;SDS011;24237;50.106;20.014;2023-04-03T12:46:46;6.57;;;3.30;;
38455;SDS011;24237;50.106;20.014;2023-04-03T12:52:00;6.97;;;2.65;;
38455;SDS011;24237;50.106;20.014;2023-04-03T12:54:38;6.05;;;2.63;;
38455;SDS011;24237;50.106;20.014;2023-04-03T12:57:18;5.50;;;2.42;;
38455;SDS011;24237;50.106;20.014;2023-04-03T12:59:46;7.68;;;2.63;;
38455;SDS011;24237;50.106;20.014;2023-04-03T13:02:18;8.80;;;3.15;;
38455;SDS011;24237;50.106;20.014;2023-04-03T13:04:48;5.90;;;2.05;;
38455;SDS011;24237;50.106;20.014;2023-04-03T13:10:01;6.55;;;2.70;;
38455;SDS011;24237;50.106;20.014;2023-04-03T13:12:29;5.43;;;2.22;;
38455;SDS011;24237;50.106;20.014;2023-04-03T13:14:57;9.18;;;2.35;;
38455;SDS011;24237;50.106;20.014;2023-04-03T13:17:25;10.40;;;2.50;;
38455;SDS011;24237;50.106;20.014;2023-04-03T13:19:52;7.82;;;2.50;;
38455;SDS011;24237;50.106;20.014;2023-04-03T13:22:34;5.63;;;1.88;;
38455;SDS011;24237;50.106;20.014;2023-04-03T13:25:08;4.82;;;2.33;;
38455;SDS011;24237;50.106;20.014;2023-04-03T13:27:37;5.20;;;2.00;;
38455;SDS011;24237;50.106;20.014;2023-04-03T13:30:04;6.53;;;2.13;;
38455;SDS011;24237;50.106;20.014;2023-04-03T13:34:57;2.95;;;1.88;;
38455;SDS011;24237;50.106;20.014;2023-04-03T13:37:28;5.65;;;2.45;;
38455;SDS011;24237;50.106;20.014;2023-04-03T13:40:00;6.13;;;3.15;;
38455;SDS011;24237;50.106;20.014;2023-04-03T13:42:32;4.13;;;1.95;;
38455;SDS011;24237;50.106;20.014;2023-04-03T13:47:49;6.97;;;2.80;;
38455;SDS011;24237;50.106;20.014;2023-04-03T13:50:18;5.07;;;2.45;;
38455;SDS011;24237;50.106;20.014;2023-04-03T13:55:25;6.32;;;1.98;;
38455;SDS011;24237;50.106;20.014;2023-04-03T14:03:38;3.72;;;2.10;;
38455;SDS011;24237;50.106;20.014;2023-04-03T14:06:09;5.22;;;2.55;;
38455;SDS011;24237;50.106;20.014;2023-04-03T14:08:38;5.18;;;2.30;;
38455;SDS011;24237;50.106;20.014;2023-04-03T14:11:08;5.57;;;2.55;;
38455;SDS011;24237;50.106;20.014;2023-04-03T14:13:43;6.72;;;2.40;;
38455;SDS011;24237;50.106;20.014;2023-04-03T14:16:12;11.35;;;2.75;;
38455;SDS011;24237;50.106;20.014;2023-04-03T14:18:43;9.05;;;3.08;;
38455;SDS011;24237;50.106;20.014;2023-04-03T14:21:14;9.80;;;2.78;;
38455;SDS011;24237;50.106;20.014;2023-04-03T14:23:42;8.68;;;3.03;;
38455;SDS011;24237;50.106;20.014;2023-04-03T14:26:14;5.40;;;2.58;;
38455;SDS011;24237;50.106;20.014;2023-04-03T14:28:45;6.30;;;2.63;;
38455;SDS011;24237;50.106;20.014;2023-04-03T14:31:13;7.10;;;2.60;;
38455;SDS011;24237;50.106;20.014;2023-04-03T14:33:40;10.88;;;2.97;;
38455;SDS011;24237;50.106;20.014;2023-04-03T14:36:11;16.33;;;2.85;;
38455;SDS011;24237;50.106;20.014;2023-04-03T14:38:37;6.57;;;2.83;;
38455;SDS011;24237;50.106;20.014;2023-04-03T14:41:03;7.75;;;2.60;;
38455;SDS011;24237;50.106;20.014;2023-04-03T14:43:28;4.03;;;2.38;;
38455;SDS011;24237;50.106;20.014;2023-04-03T14:45:54;6.10;;;2.60;;
38455;SDS011;24237;50.106;20.014;2023-04-03T14:48:21;5.82;;;2.22;;
38455;SDS011;24237;50.106;20.014;2023-04-03T14:50:51;6.03;;;3.10;;
38455;SDS011;24237;50.106;20.014;2023-04-03T14:53:18;8.65;;;3.33;;
38455;SDS011;24237;50.106;20.014;2023-04-03T14:55:50;11.23;;;2.33;;
38455;SDS011;24237;50.106;20.014;2023-04-03T14:58:16;7.60;;;2.78;;
38455;SDS011;24237;50.106;20.014;2023-04-03T15:00:43;6.65;;;2.83;;
38455;SDS011;24237;50.106;20.014;2023-04-03T15:03:14;5.63;;;2.30;;
38455;SDS011;24237;50.106;20.014;2023-04-03T15:05:41;5.10;;;2.03;;
38455;SDS011;24237;50.106;20.014;2023-04-03T15:10:41;4.75;;;2.20;;
38455;SDS011;24237;50.106;20.014;2023-04-03T15:13:08;8.00;;;2.53;;
38455;SDS011;24237;50.106;20.014;2023-04-03T15:15:35;9.13;;;2.67;;
38455;SDS011;24237;50.106;20.014;2023-04-03T15:18:02;7.85;;;3.20;;
38455;SDS011;24237;50.106;20.014;2023-04-03T15:20:28;4.07;;;2.17;;
38455;SDS011;24237;50.106;20.014;2023-04-03T15:22:56;4.65;;;1.92;;
38455;SDS011;24237;50.106;20.014;2023-04-03T15:25:22;4.18;;;1.80;;
38455;SDS011;24237;50.106;20.014;2023-04-03T15:27:48;8.48;;;2.70;;
38455;SDS011;24237;50.106;20.014;2023-04-03T15:30:15;6.38;;;2.50;;
38455;SDS011;24237;50.106;20.014;2023-04-03T15:32:42;7.55;;;2.42;;
38455;SDS011;24237;50.106;20.014;2023-04-03T15:35:08;4.47;;;1.90;;
38455;SDS011;24237;50.106;20.014;2023-04-03T15:40:56;10.50;;;3.10;;
38455;SDS011;24237;50.106;20.014;2023-04-03T15:43:22;7.13;;;2.17;;
38455;SDS011;24237;50.106;20.014;2023-04-03T15:45:48;8.52;;;2.85;;
38455;SDS011;24237;50.106;20.014;2023-04-03T15:48:26;5.68;;;2.80;;
38455;SDS011;24237;50.106;20.014;2023-04-03T15:53:40;4.35;;;1.95;;
38455;SDS011;24237;50.106;20.014;2023-04-03T15:56:07;3.07;;;2.10;;
38455;SDS011;24237;50.106;20.014;2023-04-03T15:58:34;7.10;;;2.20;;
38455;SDS011;24237;50.106;20.014;2023-04-03T16:01:00;5.80;;;2.40;;
38455;SDS011;24237;50.106;20.014;2023-04-03T16:03:26;6.55;;;2.28;;
38455;SDS011;24237;50.106;20.014;2023-04-03T16:05:52;7.88;;;2.50;;
38455;SDS011;24237;50.106;20.014;2023-04-03T16:08:21;7.32;;;2.67;;
38455;SDS011;24237;50.106;20.014;2023-04-03T16:10:47;10.38;;;2.67;;
38455;SDS011;24237;50.106;20.014;2023-04-03T16:13:13;8.00;;;2.50;;
38455;SDS011;24237;50.106;20.014;2023-04-03T16:15:39;7.55;;;2.35;;
38455;SDS011;24237;50.106;20.014;2023-04-03T16:18:05;6.20;;;2.75;;
38455;SDS011;24237;50.106;20.014;2023-04-03T16:20:33;7.47;;;2.53;;
38455;SDS011;24237;50.106;20.014;2023-04-03T16:23:00;6.55;;;2.33;;
38455;SDS011;24237;50.106;20.014;2023-04-03T16:25:26;5.60;;;2.20;;
38455;SDS011;24237;50.106;20.014;2023-04-03T16:27:52;12.35;;;3.92;;
38455;SDS011;24237;50.106;20.014;2023-04-03T16:30:18;10.30;;;3.17;;
38455;SDS011;24237;50.106;20.014;2023-04-03T16:32:44;16.65;;;5.22;;
38455;SDS011;24237;50.106;20.014;2023-04-03T16:35:10;17.05;;;4.47;;
38455;SDS011;24237;50.106;20.014;2023-04-03T16:37:36;8.35;;;3.20;;
38455;SDS011;24237;50.106;20.014;2023-04-03T16:40:04;8.93;;;4.20;;
38455;SDS011;24237;50.106;20.014;2023-04-03T16:44:57;9.85;;;2.75;;
38455;SDS011;24237;50.106;20.014;2023-04-03T16:47:24;6.88;;;2.75;;
38455;SDS011;24237;50.106;20.014;2023-04-03T16:49:50;5.55;;;2.67;;
38455;SDS011;24237;50.106;20.014;2023-04-03T16:52:16;6.15;;;2.88;;
38455;SDS011;24237;50.106;20.014;2023-04-03T16:54:42;6.97;;;3.40;;
38455;SDS011;24237;50.106;20.014;2023-04-03T16:57:07;8.98;;;3.10;;
38455;SDS011;24237;50.106;20.014;2023-04-03T16:59:33;7.22;;;3.10;;
38455;SDS011;24237;50.106;20.014;2023-04-03T17:01:58;11.43;;;3.38;;
38455;SDS011;24237;50.106;20.014;2023-04-03T17:04:24;11.00;;;3.22;;